sensor_id;sensor_type;location;lat;lon;timestamp;P1;durP1;ratioP1;P2;durP2;ratioP2
61373;SDS011;47242;48.158;-1.586;2023-05-06T04:32:29;10.15;;;2.83;;
61373;SDS011;47242;48.158;-1.586;2023-05-06T04:34:55;8.38;;;2.35;;
61373;SDS011;47242;48.158;-1.586;2023-05-06T04:37:21;5.38;;;2.33;;
61373;SDS011;47242;48.158;-1.586;2023-05-06T04:39:47;4.63;;;2.20;;
61373;SDS011;47242;48.158;-1.586;2023-05-06T04:42:13;5.80;;;2.33;;
61373;SDS011;47242;48.158;-1.586;2023-05-06T04:44:40;6.57;;;2.65;;
61373;SDS011;47242;48.158;-1.586;2023-05-06T04:47:06;12.35;;;2.63;;
61373;SDS011;47242;48.158;-1.586;2023-05-06T04:49:32;10.25;;;2.35;;
61373;SDS011;47242;48.158;-1.586;2023-05-06T04:51:58;8.57;;;2.63;;
61373;SDS011;47242;48.158;-1.586;2023-05-06T04:54:23;9.30;;;2.03;;
61373;SDS011;47242;48.158;-1.586;2023-05-06T04:56:49;10.52;;;2.42;;
61373;SDS011;47242;48.158;-1.586;2023-05-06T04:59:15;9.32;;;2.22;;
61373;SDS011;47242;48.158;-1.586;2023-05-06T05:01:40;7.65;;;2.20;;
61373;SDS011;47242;48.158;-1.586;2023-05-06T05:04:06;7.72;;;2.40;;
61373;SDS011;47242;48.158;-1.586;2023-05-06T05:06:32;6.70;;;2.33;;
61373;SDS011;47242;48.158;-1.586;2023-05-06T05:08:57;9.02;;;2.58;;
61373;SDS011;47242;48.158;-1.586;2023-05-06T05:11:23;5.47;;;1.98;;
61373;SDS011;47242;48.158;-1.586;2023-05-06T05:13:49;11.25;;;2.15;;
61373;SDS011;47242;48.158;-1.586;2023-05-06T05:16:15;10.48;;;2.42;;
61373;SDS011;47242;48.158;-1.586;2023-05-06T05:18:41;9.18;;;2.10;;
61373;SDS011;47242;48.158;-1.586;2023-05-06T05:21:07;8.20;;;2.95;;
61373;SDS011;47242;48.158;-1.586;2023-05-06T05:23:32;10.30;;;2.58;;
61373;SDS011;47242;48.158;-1.586;2023-05-06T05:25:58;4.72;;;2.03;;
61373;SDS011;47242;48.158;-1.586;2023-05-06T05:28:23;6.47;;;2.75;;
61373;SDS011;47242;48.158;-1.586;2023-05-06T05:30:49;5.65;;;2.28;;
61373;SDS011;47242;48.158;-1.586;2023-05-06T05:33:15;7.97;;;2.20;;
61373;SDS011;47242;48.158;-1.586;2023-05-06T05:35:40;7.78;;;2.53;;
61373;SDS011;47242;48.158;-1.586;2023-05-06T05:38:06;8.38;;;2.38;;
61373;SDS011;47242;48.158;-1.586;2023-05-06T05:40:32;13.18;;;2.50;;
61373;SDS011;47242;48.158;-1.586;2023-05-06T05:42:59;10.85;;;2.25;;
61373;SDS011;47242;48.158;-1.586;2023-05-06T05:45:25;8.63;;;2.50;;
61373;SDS011;47242;48.158;-1.586;2023-05-06T05:47:50;9.20;;;2.58;;
61373;SDS011;47242;48.158;-1.586;2023-05-06T05:50:17;12.27;;;2.40;;
61373;SDS011;47242;48.158;-1.586;2023-05-06T05:52:43;10.27;;;2.58;;
61373;SDS011;47242;48.158;-1.586;2023-05-06T05:55:09;8.48;;;2.38;;
61373;SDS011;47242;48.158;-1.586;2023-05-06T05:57:36;6.22;;;2.33;;
61373;SDS011;47242;48.158;-1.586;2023-05-06T06:00:02;8.55;;;2.10;;
61373;SDS011;47242;48.158;-1.586;2023-05-06T06:02:29;9.70;;;2.28;;
61373;SDS011;47242;48.158;-1.586;2023-05-06T06:04:55;11.50;;;2.38;;
61373;SDS011;47242;48.158;-1.586;2023-05-06T06:07:21;10.70;;;2.53;;
61373;SDS011;47242;48.158;-1.586;2023-05-06T06:09:47;12.45;;;2.58;;
61373;SDS011;47242;48.158;-1.586;2023-05-06T06:12:13;12.18;;;3.33;;
61373;SDS011;47242;48.158;-1.586;2023-05-06T06:14:39;9.98;;;2.72;;
61373;SDS011;47242;48.158;-1.586;2023-05-06T06:17:04;5.65;;;2.35;;
61373;SDS011;47242;48.158;-1.586;2023-05-06T06:19:30;5.97;;;2.17;;
61373;SDS011;47242;48.158;-1.586;2023-05-06T06:21:56;9.00;;;2.70;;
61373;SDS011;47242;48.158;-1.586;2023-05-06T06:24:21;11.13;;;2.70;;
61373;SDS011;47242;48.158;-1.586;2023-05-06T06:26:47;7.82;;;2.22;;
61373;SDS011;47242;48.158;-1.586;2023-05-06T06:29:13;7.20;;;2.00;;
61373;SDS011;47242;48.158;-1.586;2023-05-06T06:31:39;7.57;;;2.05;;
61373;SDS011;47242;48.158;-1.586;2023-05-06T06:34:04;10.25;;;2.35;;
61373;SDS011;47242;48.158;-1.586;2023-05-06T06:36:30;7.10;;;2.22;;
61373;SDS011;47242;48.158;-1.586;2023-05-06T06:38:57;6.80;;;2.35;;
61373;SDS011;47242;48.158;-1.586;2023-05-06T06:41:22;7.57;;;2.17;;
61373;SDS011;47242;48.158;-1.586;2023-05-06T06:43:48;6.97;;;2.17;;
61373;SDS011;47242;48.158;-1.586;2023-05-06T06:46:14;5.60;;;2.17;;
61373;SDS011;47242;48.158;-1.586;2023-05-06T06:48:39;6.43;;;2.20;;
61373;SDS011;47242;48.158;-1.586;2023-05-06T06:51:05;8.68;;;2.10;;
61373;SDS011;47242;48.158;-1.586;2023-05-06T06:53:30;4.45;;;2.00;;
61373;SDS011;47242;48.158;-1.586;2023-05-06T06:55:56;6.15;;;2.08;;
61373;SDS011;47242;48.158;-1.586;2023-05-06T06:58:22;6.22;;;2.10;;
61373;SDS011;47242;48.158;-1.586;2023-05-06T07:00:48;7.60;;;2.00;;
61373;SDS011;47242;48.158;-1.586;2023-05-06T07:03:13;5.57;;;2.05;;
61373;SDS011;47242;48.158;-1.586;2023-05-06T07:05:43;5.30;;;1.90;;
61373;SDS011;47242;48.158;-1.586;2023-05-06T07:08:09;11.18;;;2.30;;
61373;SDS011;47242;48.158;-1.586;2023-05-06T07:10:35;6.78;;;1.77;;
61373;SDS011;47242;48.158;-1.586;2023-05-06T07:13:01;7.97;;;1.80;;
61373;SDS011;47242;48.158;-1.586;2023-05-06T07:15:27;9.60;;;1.92;;
61373;SDS011;47242;48.158;-1.586;2023-05-06T07:17:52;5.53;;;1.55;;
61373;SDS011;47242;48.158;-1.586;2023-05-06T07:20:18;7.28;;;2.10;;
61373;SDS011;47242;48.158;-1.586;2023-05-06T07:22:44;6.43;;;1.98;;
61373;SDS011;47242;48.158;-1.586;2023-05-06T07:25:09;9.75;;;1.80;;
61373;SDS011;47242;48.158;-1.586;2023-05-06T07:27:35;9.70;;;2.58;;
61373;SDS011;47242;48.158;-1.586;2023-05-06T07:30:01;8.63;;;1.85;;
61373;SDS011;47242;48.158;-1.586;2023-05-06T07:32:27;11.00;;;1.98;;
61373;SDS011;47242;48.158;-1.586;2023-05-06T07:34:53;7.57;;;1.63;;
61373;SDS011;47242;48.158;-1.586;2023-05-06T07:37:19;9.18;;;1.55;;
61373;SDS011;47242;48.158;-1.586;2023-05-06T07:39:44;6.55;;;1.70;;
61373;SDS011;47242;48.158;-1.586;2023-05-06T07:42:10;9.23;;;1.95;;
61373;SDS011;47242;48.158;-1.586;2023-05-06T07:44:37;9.55;;;1.80;;
61373;SDS011;47242;48.158;-1.586;2023-05-06T07:47:03;4.85;;;1.60;;
61373;SDS011;47242;48.158;-1.586;2023-05-06T07:49:28;9.80;;;1.50;;
61373;SDS011;47242;48.158;-1.586;2023-05-06T07:51:57;8.25;;;2.42;;
61373;SDS011;47242;48.158;-1.586;2023-05-06T07:54:22;6.05;;;2.10;;
61373;SDS011;47242;48.158;-1.586;2023-05-06T07:56:48;5.65;;;1.52;;
61373;SDS011;47242;48.158;-1.586;2023-05-06T07:59:14;10.02;;;1.83;;
61373;SDS011;47242;48.158;-1.586;2023-05-06T08:01:39;8.25;;;2.20;;
61373;SDS011;47242;48.158;-1.586;2023-05-06T08:04:05;7.47;;;2.30;;
61373;SDS011;47242;48.158;-1.586;2023-05-06T08:06:31;5.10;;;1.77;;
61373;SDS011;47242;48.158;-1.586;2023-05-06T08:08:57;11.07;;;2.00;;
61373;SDS011;47242;48.158;-1.586;2023-05-06T08:11:22;10.07;;;2.03;;
61373;SDS011;47242;48.158;-1.586;2023-05-06T08:13:48;8.20;;;1.77;;
61373;SDS011;47242;48.158;-1.586;2023-05-06T08:16:14;5.35;;;1.67;;
61373;SDS011;47242;48.158;-1.586;2023-05-06T08:18:40;5.93;;;2.30;;
61373;SDS011;47242;48.158;-1.586;2023-05-06T08:21:06;5.70;;;2.25;;
61373;SDS011;47242;48.158;-1.586;2023-05-06T08:23:31;9.63;;;2.00;;
61373;SDS011;47242;48.158;-1.586;2023-05-06T08:25:57;7.25;;;1.95;;
61373;SDS011;47242;48.158;-1.586;2023-05-06T08:28:33;8.65;;;2.47;;
61373;SDS011;47242;48.158;-1.586;2023-05-06T08:30:59;8.80;;;2.28;;
61373;SDS011;47242;48.158;-1.586;2023-05-06T08:33:27;9.43;;;1.92;;
61373;SDS011;47242;48.158;-1.586;2023-05-06T08:35:54;7.82;;;1.92;;
61373;SDS011;47242;48.158;-1.586;2023-05-06T08:38:21;4.85;;;1.70;;
61373;SDS011;47242;48.158;-1.586;2023-05-06T08:40:47;9.43;;;2.17;;
61373;SDS011;47242;48.158;-1.586;2023-05-06T08:43:13;6.15;;;2.17;;
61373;SDS011;47242;48.158;-1.586;2023-05-06T08:45:39;9.60;;;2.38;;
61373;SDS011;47242;48.158;-1.586;2023-05-06T08:48:05;6.10;;;2.42;;
61373;SDS011;47242;48.158;-1.586;2023-05-06T08:50:31;7.75;;;2.40;;
61373;SDS011;47242;48.158;-1.586;2023-05-06T08:52:59;7.13;;;2.20;;
61373;SDS011;47242;48.158;-1.586;2023-05-06T08:55:26;5.55;;;2.03;;
61373;SDS011;47242;48.158;-1.586;2023-05-06T08:57:52;4.88;;;2.08;;
61373;SDS011;47242;48.158;-1.586;2023-05-06T09:00:20;5.07;;;2.20;;
61373;SDS011;47242;48.158;-1.586;2023-05-06T09:02:46;7.18;;;2.63;;
61373;SDS011;47242;48.158;-1.586;2023-05-06T09:05:11;7.72;;;2.00;;
61373;SDS011;47242;48.158;-1.586;2023-05-06T09:07:37;6.40;;;2.30;;
61373;SDS011;47242;48.158;-1.586;2023-05-06T09:10:12;4.07;;;1.83;;
61373;SDS011;47242;48.158;-1.586;2023-05-06T09:12:39;4.47;;;2.63;;
61373;SDS011;47242;48.158;-1.586;2023-05-06T09:15:05;6.78;;;2.03;;
61373;SDS011;47242;48.158;-1.586;2023-05-06T09:17:31;6.28;;;1.85;;
61373;SDS011;47242;48.158;-1.586;2023-05-06T09:19:57;5.35;;;1.90;;
61373;SDS011;47242;48.158;-1.586;2023-05-06T09:22:23;4.32;;;1.85;;
61373;SDS011;47242;48.158;-1.586;2023-05-06T09:24:51;4.88;;;1.75;;
61373;SDS011;47242;48.158;-1.586;2023-05-06T09:27:28;6.57;;;1.42;;
61373;SDS011;47242;48.158;-1.586;2023-05-06T09:30:02;5.75;;;1.80;;
61373;SDS011;47242;48.158;-1.586;2023-05-06T09:32:29;7.32;;;1.65;;
61373;SDS011;47242;48.158;-1.586;2023-05-06T09:34:56;9.75;;;2.35;;
61373;SDS011;47242;48.158;-1.586;2023-05-06T09:37:22;4.43;;;1.77;;
61373;SDS011;47242;48.158;-1.586;2023-05-06T09:39:50;7.43;;;1.83;;
61373;SDS011;47242;48.158;-1.586;2023-05-06T09:42:22;4.20;;;1.50;;
61373;SDS011;47242;48.158;-1.586;2023-05-06T09:44:50;6.38;;;1.90;;
61373;SDS011;47242;48.158;-1.586;2023-05-06T09:47:21;4.85;;;1.60;;
61373;SDS011;47242;48.158;-1.586;2023-05-06T09:49:48;3.17;;;1.50;;
61373;SDS011;47242;48.158;-1.586;2023-05-06T09:52:13;5.70;;;1.55;;
61373;SDS011;47242;48.158;-1.586;2023-05-06T09:54:39;4.88;;;1.67;;
61373;SDS011;47242;48.158;-1.586;2023-05-06T09:57:05;8.40;;;1.88;;
61373;SDS011;47242;48.158;-1.586;2023-05-06T09:59:31;4.30;;;1.73;;
61373;SDS011;47242;48.158;-1.586;2023-05-06T10:01:58;3.47;;;1.77;;
61373;SDS011;47242;48.158;-1.586;2023-05-06T10:04:25;5.45;;;1.67;;
61373;SDS011;47242;48.158;-1.586;2023-05-06T10:06:52;5.90;;;1.65;;
61373;SDS011;47242;48.158;-1.586;2023-05-06T10:09:23;5.37;;;1.37;;
61373;SDS011;47242;48.158;-1.586;2023-05-06T10:11:49;5.30;;;1.90;;
61373;SDS011;47242;48.158;-1.586;2023-05-06T10:14:16;5.97;;;2.15;;
61373;SDS011;47242;48.158;-1.586;2023-05-06T10:16:43;2.97;;;1.27;;
61373;SDS011;47242;48.158;-1.586;2023-05-06T10:19:12;4.30;;;1.50;;
61373;SDS011;47242;48.158;-1.586;2023-05-06T10:21:42;2.90;;;1.40;;
61373;SDS011;47242;48.158;-1.586;2023-05-06T10:24:18;3.30;;;0.95;;
61373;SDS011;47242;48.158;-1.586;2023-05-06T10:26:47;3.30;;;1.35;;
61373;SDS011;47242;48.158;-1.586;2023-05-06T10:29:16;4.50;;;1.73;;
61373;SDS011;47242;48.158;-1.586;2023-05-06T10:31:47;7.90;;;1.77;;
61373;SDS011;47242;48.158;-1.586;2023-05-06T10:34:20;6.63;;;1.73;;
61373;SDS011;47242;48.158;-1.586;2023-05-06T10:36:47;8.63;;;1.80;;
61373;SDS011;47242;48.158;-1.586;2023-05-06T10:39:17;6.15;;;1.50;;
61373;SDS011;47242;48.158;-1.586;2023-05-06T10:41:43;2.75;;;1.25;;
61373;SDS011;47242;48.158;-1.586;2023-05-06T10:44:09;7.50;;;1.67;;
61373;SDS011;47242;48.158;-1.586;2023-05-06T10:49:21;4.85;;;1.45;;
61373;SDS011;47242;48.158;-1.586;2023-05-06T10:51:46;8.40;;;2.25;;
61373;SDS011;47242;48.158;-1.586;2023-05-06T10:59:13;5.95;;;1.67;;
61373;SDS011;47242;48.158;-1.586;2023-05-06T11:01:43;6.57;;;1.73;;
61373;SDS011;47242;48.158;-1.586;2023-05-06T11:04:14;4.68;;;1.50;;
61373;SDS011;47242;48.158;-1.586;2023-05-06T11:06:44;7.80;;;1.85;;
61373;SDS011;47242;48.158;-1.586;2023-05-06T11:09:20;3.45;;;1.50;;
61373;SDS011;47242;48.158;-1.586;2023-05-06T11:14:14;5.55;;;1.50;;
61373;SDS011;47242;48.158;-1.586;2023-05-06T11:16:49;8.88;;;1.92;;
61373;SDS011;47242;48.158;-1.586;2023-05-06T11:19:25;6.65;;;1.83;;
61373;SDS011;47242;48.158;-1.586;2023-05-06T11:21:53;6.32;;;1.70;;
61373;SDS011;47242;48.158;-1.586;2023-05-06T11:24:22;4.72;;;1.70;;
61373;SDS011;47242;48.158;-1.586;2023-05-06T11:26:49;5.93;;;1.63;;
61373;SDS011;47242;48.158;-1.586;2023-05-06T11:29:16;3.45;;;1.02;;
61373;SDS011;47242;48.158;-1.586;2023-05-06T11:31:43;3.35;;;1.35;;
61373;SDS011;47242;48.158;-1.586;2023-05-06T11:34:13;5.03;;;1.83;;
61373;SDS011;47242;48.158;-1.586;2023-05-06T11:36:49;3.63;;;1.48;;
61373;SDS011;47242;48.158;-1.586;2023-05-06T11:39:16;7.32;;;1.63;;
61373;SDS011;47242;48.158;-1.586;2023-05-06T11:41:42;9.65;;;1.65;;
61373;SDS011;47242;48.158;-1.586;2023-05-06T11:44:08;4.07;;;1.50;;
61373;SDS011;47242;48.158;-1.586;2023-05-06T11:46:36;3.72;;;1.25;;
61373;SDS011;47242;48.158;-1.586;2023-05-06T11:49:02;5.00;;;1.25;;
61373;SDS011;47242;48.158;-1.586;2023-05-06T11:51:28;5.25;;;1.40;;
61373;SDS011;47242;48.158;-1.586;2023-05-06T11:54:06;5.18;;;1.80;;
61373;SDS011;47242;48.158;-1.586;2023-05-06T11:56:42;4.55;;;2.00;;
61373;SDS011;47242;48.158;-1.586;2023-05-06T11:59:12;5.70;;;1.58;;
61373;SDS011;47242;48.158;-1.586;2023-05-06T12:01:39;4.82;;;1.45;;
61373;SDS011;47242;48.158;-1.586;2023-05-06T12:04:06;3.33;;;1.40;;
61373;SDS011;47242;48.158;-1.586;2023-05-06T12:06:35;4.78;;;1.30;;
61373;SDS011;47242;48.158;-1.586;2023-05-06T12:09:02;7.93;;;1.48;;
61373;SDS011;47242;48.158;-1.586;2023-05-06T12:11:31;5.38;;;1.50;;
61373;SDS011;47242;48.158;-1.586;2023-05-06T12:14:01;6.13;;;1.50;;
61373;SDS011;47242;48.158;-1.586;2023-05-06T12:16:29;8.13;;;1.40;;
61373;SDS011;47242;48.158;-1.586;2023-05-06T12:18:55;5.75;;;1.83;;
61373;SDS011;47242;48.158;-1.586;2023-05-06T12:21:22;5.00;;;1.50;;
61373;SDS011;47242;48.158;-1.586;2023-05-06T12:23:52;4.30;;;1.35;;
61373;SDS011;47242;48.158;-1.586;2023-05-06T12:26:18;4.88;;;1.30;;
61373;SDS011;47242;48.158;-1.586;2023-05-06T12:28:46;3.00;;;1.23;;
61373;SDS011;47242;48.158;-1.586;2023-05-06T12:31:27;7.88;;;1.55;;
61373;SDS011;47242;48.158;-1.586;2023-05-06T12:33:52;5.13;;;1.23;;
61373;SDS011;47242;48.158;-1.586;2023-05-06T12:36:18;5.00;;;1.42;;
61373;SDS011;47242;48.158;-1.586;2023-05-06T12:38:53;5.75;;;1.50;;
61373;SDS011;47242;48.158;-1.586;2023-05-06T12:41:24;5.18;;;1.38;;
61373;SDS011;47242;48.158;-1.586;2023-05-06T12:47:19;10.00;;;1.73;;
61373;SDS011;47242;48.158;-1.586;2023-05-06T12:52:19;9.02;;;1.90;;
61373;SDS011;47242;48.158;-1.586;2023-05-06T12:54:47;3.35;;;1.08;;
61373;SDS011;47242;48.158;-1.586;2023-05-06T12:57:13;3.28;;;1.02;;
61373;SDS011;47242;48.158;-1.586;2023-05-06T12:59:40;4.60;;;1.20;;
61373;SDS011;47242;48.158;-1.586;2023-05-06T13:02:07;6.75;;;1.70;;
61373;SDS011;47242;48.158;-1.586;2023-05-06T13:04:33;5.57;;;1.48;;
61373;SDS011;47242;48.158;-1.586;2023-05-06T13:06:59;3.88;;;1.27;;
61373;SDS011;47242;48.158;-1.586;2023-05-06T13:09:24;2.85;;;1.25;;
61373;SDS011;47242;48.158;-1.586;2023-05-06T13:11:50;6.65;;;1.73;;
61373;SDS011;47242;48.158;-1.586;2023-05-06T13:14:16;5.95;;;1.40;;
61373;SDS011;47242;48.158;-1.586;2023-05-06T13:16:42;7.72;;;1.83;;
61373;SDS011;47242;48.158;-1.586;2023-05-06T13:19:11;5.22;;;1.50;;
61373;SDS011;47242;48.158;-1.586;2023-05-06T13:21:37;3.70;;;1.33;;
61373;SDS011;47242;48.158;-1.586;2023-05-06T13:24:03;5.45;;;1.13;;
61373;SDS011;47242;48.158;-1.586;2023-05-06T13:26:30;3.17;;;1.25;;
61373;SDS011;47242;48.158;-1.586;2023-05-06T13:28:56;5.88;;;1.73;;
61373;SDS011;47242;48.158;-1.586;2023-05-06T13:31:22;5.78;;;1.48;;
61373;SDS011;47242;48.158;-1.586;2023-05-06T13:33:47;5.32;;;1.20;;
61373;SDS011;47242;48.158;-1.586;2023-05-06T13:36:13;6.47;;;1.63;;
61373;SDS011;47242;48.158;-1.586;2023-05-06T13:38:39;6.40;;;1.70;;
61373;SDS011;47242;48.158;-1.586;2023-05-06T13:41:05;3.00;;;1.00;;
61373;SDS011;47242;48.158;-1.586;2023-05-06T13:43:31;5.60;;;1.40;;
61373;SDS011;47242;48.158;-1.586;2023-05-06T13:45:57;3.17;;;1.20;;
61373;SDS011;47242;48.158;-1.586;2023-05-06T13:48:22;2.95;;;1.25;;
61373;SDS011;47242;48.158;-1.586;2023-05-06T13:50:48;3.15;;;1.00;;
61373;SDS011;47242;48.158;-1.586;2023-05-06T13:53:14;4.47;;;1.40;;
61373;SDS011;47242;48.158;-1.586;2023-05-06T13:55:40;4.80;;;1.13;;
61373;SDS011;47242;48.158;-1.586;2023-05-06T13:58:06;2.30;;;1.40;;
61373;SDS011;47242;48.158;-1.586;2023-05-06T14:00:33;8.30;;;1.40;;
61373;SDS011;47242;48.158;-1.586;2023-05-06T14:03:00;3.95;;;1.42;;
61373;SDS011;47242;48.158;-1.586;2023-05-06T14:05:26;2.83;;;1.42;;
61373;SDS011;47242;48.158;-1.586;2023-05-06T14:07:51;2.20;;;1.35;;
61373;SDS011;47242;48.158;-1.586;2023-05-06T14:10:18;9.63;;;1.65;;
61373;SDS011;47242;48.158;-1.586;2023-05-06T14:12:44;4.28;;;1.60;;
61373;SDS011;47242;48.158;-1.586;2023-05-06T14:15:11;4.13;;;1.77;;
61373;SDS011;47242;48.158;-1.586;2023-05-06T14:17:39;3.08;;;1.08;;
61373;SDS011;47242;48.158;-1.586;2023-05-06T14:20:05;5.05;;;1.50;;
61373;SDS011;47242;48.158;-1.586;2023-05-06T14:22:32;6.18;;;1.40;;
61373;SDS011;47242;48.158;-1.586;2023-05-06T14:24:58;3.90;;;1.60;;
61373;SDS011;47242;48.158;-1.586;2023-05-06T14:27:24;4.32;;;1.60;;
61373;SDS011;47242;48.158;-1.586;2023-05-06T14:29:50;4.18;;;1.52;;
61373;SDS011;47242;48.158;-1.586;2023-05-06T14:32:16;4.88;;;1.70;;
61373;SDS011;47242;48.158;-1.586;2023-05-06T14:34:41;5.53;;;1.75;;
61373;SDS011;47242;48.158;-1.586;2023-05-06T14:37:07;8.27;;;2.63;;
61373;SDS011;47242;48.158;-1.586;2023-05-06T14:39:33;6.35;;;1.67;;
61373;SDS011;47242;48.158;-1.586;2023-05-06T14:41:58;4.25;;;1.60;;
61373;SDS011;47242;48.158;-1.586;2023-05-06T14:44:24;3.83;;;1.42;;
61373;SDS011;47242;48.158;-1.586;2023-05-06T14:46:50;6.03;;;1.60;;
61373;SDS011;47242;48.158;-1.586;2023-05-06T14:49:15;6.75;;;1.90;;
61373;SDS011;47242;48.158;-1.586;2023-05-06T14:51:41;6.53;;;2.00;;
61373;SDS011;47242;48.158;-1.586;2023-05-06T14:54:07;6.80;;;2.40;;
61373;SDS011;47242;48.158;-1.586;2023-05-06T14:56:33;5.55;;;2.10;;
61373;SDS011;47242;48.158;-1.586;2023-05-06T14:59:00;4.25;;;1.95;;
61373;SDS011;47242;48.158;-1.586;2023-05-06T15:01:25;8.02;;;2.67;;
61373;SDS011;47242;48.158;-1.586;2023-05-06T15:03:51;6.03;;;2.17;;
61373;SDS011;47242;48.158;-1.586;2023-05-06T15:06:17;5.07;;;2.63;;
61373;SDS011;47242;48.158;-1.586;2023-05-06T15:08:43;7.35;;;2.55;;
61373;SDS011;47242;48.158;-1.586;2023-05-06T15:11:10;4.57;;;2.17;;
61373;SDS011;47242;48.158;-1.586;2023-05-06T15:13:36;6.57;;;3.10;;
61373;SDS011;47242;48.158;-1.586;2023-05-06T15:16:01;6.57;;;2.72;;
61373;SDS011;47242;48.158;-1.586;2023-05-06T15:18:27;5.32;;;2.20;;
61373;SDS011;47242;48.158;-1.586;2023-05-06T15:20:53;10.25;;;3.60;;
61373;SDS011;47242;48.158;-1.586;2023-05-06T15:23:19;4.65;;;2.13;;
61373;SDS011;47242;48.158;-1.586;2023-05-06T15:25:45;5.00;;;2.10;;
61373;SDS011;47242;48.158;-1.586;2023-05-06T15:28:11;8.27;;;2.80;;
61373;SDS011;47242;48.158;-1.586;2023-05-06T15:30:37;4.68;;;2.00;;
61373;SDS011;47242;48.158;-1.586;2023-05-06T15:33:03;7.10;;;2.38;;
61373;SDS011;47242;48.158;-1.586;2023-05-06T15:35:29;6.63;;;2.45;;
61373;SDS011;47242;48.158;-1.586;2023-05-06T15:37:55;5.93;;;2.55;;
61373;SDS011;47242;48.158;-1.586;2023-05-06T15:40:24;8.50;;;3.80;;
61373;SDS011;47242;48.158;-1.586;2023-05-06T15:42:50;6.20;;;2.95;;
61373;SDS011;47242;48.158;-1.586;2023-05-06T15:45:16;5.25;;;2.25;;
61373;SDS011;47242;48.158;-1.586;2023-05-06T15:47:42;5.93;;;2.13;;
61373;SDS011;47242;48.158;-1.586;2023-05-06T15:50:08;5.38;;;2.42;;
61373;SDS011;47242;48.158;-1.586;2023-05-06T15:52:34;5.10;;;2.33;;
61373;SDS011;47242;48.158;-1.586;2023-05-06T15:55:00;8.23;;;2.88;;
61373;SDS011;47242;48.158;-1.586;2023-05-06T15:57:28;10.23;;;3.35;;
61373;SDS011;47242;48.158;-1.586;2023-05-06T15:59:54;5.97;;;2.50;;
61373;SDS011;47242;48.158;-1.586;2023-05-06T16:02:20;5.85;;;2.08;;
61373;SDS011;47242;48.158;-1.586;2023-05-06T16:04:46;7.30;;;3.13;;
61373;SDS011;47242;48.158;-1.586;2023-05-06T16:07:12;7.20;;;3.05;;
61373;SDS011;47242;48.158;-1.586;2023-05-06T16:09:38;5.03;;;2.50;;
61373;SDS011;47242;48.158;-1.586;2023-05-06T16:12:03;5.07;;;2.58;;
61373;SDS011;47242;48.158;-1.586;2023-05-06T16:14:29;4.45;;;2.53;;
61373;SDS011;47242;48.158;-1.586;2023-05-06T16:16:55;7.30;;;3.55;;
61373;SDS011;47242;48.158;-1.586;2023-05-06T16:19:21;9.00;;;3.30;;
61373;SDS011;47242;48.158;-1.586;2023-05-06T16:21:47;5.22;;;3.03;;
61373;SDS011;47242;48.158;-1.586;2023-05-06T16:24:13;5.68;;;2.70;;
61373;SDS011;47242;48.158;-1.586;2023-05-06T16:26:38;6.30;;;2.78;;
61373;SDS011;47242;48.158;-1.586;2023-05-06T16:29:04;4.95;;;3.10;;
61373;SDS011;47242;48.158;-1.586;2023-05-06T16:31:31;6.38;;;3.63;;
61373;SDS011;47242;48.158;-1.586;2023-05-06T16:33:57;4.78;;;2.50;;
61373;SDS011;47242;48.158;-1.586;2023-05-06T16:36:26;9.88;;;3.42;;
61373;SDS011;47242;48.158;-1.586;2023-05-06T16:38:52;7.88;;;2.90;;
61373;SDS011;47242;48.158;-1.586;2023-05-06T16:41:20;7.43;;;3.35;;
61373;SDS011;47242;48.158;-1.586;2023-05-06T16:43:46;4.75;;;2.63;;
61373;SDS011;47242;48.158;-1.586;2023-05-06T16:46:11;6.28;;;3.38;;
61373;SDS011;47242;48.158;-1.586;2023-05-06T16:48:37;5.05;;;3.10;;
61373;SDS011;47242;48.158;-1.586;2023-05-06T16:51:02;4.65;;;2.95;;
61373;SDS011;47242;48.158;-1.586;2023-05-06T16:53:28;8.23;;;3.78;;
61373;SDS011;47242;48.158;-1.586;2023-05-06T16:55:54;4.32;;;2.80;;
61373;SDS011;47242;48.158;-1.586;2023-05-06T16:58:25;5.13;;;3.15;;
61373;SDS011;47242;48.158;-1.586;2023-05-06T17:00:50;5.55;;;3.05;;
61373;SDS011;47242;48.158;-1.586;2023-05-06T17:03:20;6.40;;;2.92;;
61373;SDS011;47242;48.158;-1.586;2023-05-06T17:05:46;4.20;;;2.92;;
61373;SDS011;47242;48.158;-1.586;2023-05-06T17:08:12;5.20;;;2.90;;
61373;SDS011;47242;48.158;-1.586;2023-05-06T17:10:38;3.95;;;3.28;;
61373;SDS011;47242;48.158;-1.586;2023-05-06T17:13:03;6.75;;;2.75;;
61373;SDS011;47242;48.158;-1.586;2023-05-06T17:15:29;5.65;;;3.17;;
61373;SDS011;47242;48.158;-1.586;2023-05-06T17:17:55;7.82;;;3.15;;
61373;SDS011;47242;48.158;-1.586;2023-05-06T17:20:21;5.82;;;2.88;;
61373;SDS011;47242;48.158;-1.586;2023-05-06T17:22:47;8.35;;;3.28;;
61373;SDS011;47242;48.158;-1.586;2023-05-06T17:25:13;6.00;;;3.40;;
61373;SDS011;47242;48.158;-1.586;2023-05-06T17:27:39;9.40;;;3.55;;
61373;SDS011;47242;48.158;-1.586;2023-05-06T17:30:05;5.53;;;3.05;;
61373;SDS011;47242;48.158;-1.586;2023-05-06T17:32:34;4.28;;;2.80;;
61373;SDS011;47242;48.158;-1.586;2023-05-06T17:34:59;6.55;;;2.13;;
61373;SDS011;47242;48.158;-1.586;2023-05-06T17:37:25;3.22;;;2.22;;
61373;SDS011;47242;48.158;-1.586;2023-05-06T17:39:51;4.00;;;2.20;;
61373;SDS011;47242;48.158;-1.586;2023-05-06T17:42:17;5.88;;;2.55;;
61373;SDS011;47242;48.158;-1.586;2023-05-06T17:44:43;6.43;;;2.15;;
61373;SDS011;47242;48.158;-1.586;2023-05-06T17:47:08;4.95;;;2.08;;
61373;SDS011;47242;48.158;-1.586;2023-05-06T17:49:34;23.10;;;5.10;;
61373;SDS011;47242;48.158;-1.586;2023-05-06T17:52:02;4.18;;;2.63;;
61373;SDS011;47242;48.158;-1.586;2023-05-06T17:54:28;3.20;;;2.22;;
61373;SDS011;47242;48.158;-1.586;2023-05-06T17:56:58;3.45;;;1.90;;
61373;SDS011;47242;48.158;-1.586;2023-05-06T17:59:27;4.43;;;2.42;;
61373;SDS011;47242;48.158;-1.586;2023-05-06T18:01:53;4.07;;;2.22;;
61373;SDS011;47242;48.158;-1.586;2023-05-06T18:04:19;5.13;;;1.98;;
61373;SDS011;47242;48.158;-1.586;2023-05-06T18:06:44;6.88;;;2.45;;
61373;SDS011;47242;48.158;-1.586;2023-05-06T18:09:10;5.75;;;2.53;;
61373;SDS011;47242;48.158;-1.586;2023-05-06T18:11:36;3.60;;;2.47;;
61373;SDS011;47242;48.158;-1.586;2023-05-06T18:14:03;6.85;;;2.92;;
61373;SDS011;47242;48.158;-1.586;2023-05-06T18:16:29;4.93;;;2.80;;
61373;SDS011;47242;48.158;-1.586;2023-05-06T18:18:54;6.03;;;2.58;;
61373;SDS011;47242;48.158;-1.586;2023-05-06T18:21:20;5.85;;;2.63;;
61373;SDS011;47242;48.158;-1.586;2023-05-06T18:23:46;7.05;;;2.58;;
61373;SDS011;47242;48.158;-1.586;2023-05-06T18:26:12;5.50;;;3.30;;
61373;SDS011;47242;48.158;-1.586;2023-05-06T18:28:38;6.10;;;2.95;;
61373;SDS011;47242;48.158;-1.586;2023-05-06T18:31:05;3.72;;;2.28;;
61373;SDS011;47242;48.158;-1.586;2023-05-06T18:33:30;5.55;;;3.45;;
61373;SDS011;47242;48.158;-1.586;2023-05-06T18:35:56;5.32;;;2.60;;
61373;SDS011;47242;48.158;-1.586;2023-05-06T18:38:22;3.55;;;2.50;;
61373;SDS011;47242;48.158;-1.586;2023-05-06T18:40:50;4.85;;;2.70;;
61373;SDS011;47242;48.158;-1.586;2023-05-06T18:43:17;8.05;;;2.45;;
61373;SDS011;47242;48.158;-1.586;2023-05-06T18:45:43;4.18;;;2.80;;
61373;SDS011;47242;48.158;-1.586;2023-05-06T18:48:08;4.53;;;2.17;;
61373;SDS011;47242;48.158;-1.586;2023-05-06T18:50:35;7.45;;;3.40;;
61373;SDS011;47242;48.158;-1.586;2023-05-06T18:53:01;6.18;;;2.60;;
61373;SDS011;47242;48.158;-1.586;2023-05-06T18:55:27;4.50;;;2.33;;
61373;SDS011;47242;48.158;-1.586;2023-05-06T18:57:53;6.70;;;2.40;;
61373;SDS011;47242;48.158;-1.586;2023-05-06T19:00:19;4.68;;;2.03;;
61373;SDS011;47242;48.158;-1.586;2023-05-06T19:02:48;5.63;;;2.58;;
61373;SDS011;47242;48.158;-1.586;2023-05-06T19:05:14;5.43;;;2.42;;
61373;SDS011;47242;48.158;-1.586;2023-05-06T19:07:39;5.18;;;2.60;;
61373;SDS011;47242;48.158;-1.586;2023-05-06T19:10:05;4.38;;;2.42;;
61373;SDS011;47242;48.158;-1.586;2023-05-06T19:12:31;4.78;;;2.20;;
61373;SDS011;47242;48.158;-1.586;2023-05-06T19:14:58;4.70;;;2.20;;
61373;SDS011;47242;48.158;-1.586;2023-05-06T19:17:27;7.63;;;2.73;;